Terminal Aerodrome Forecast
Issued by NWS

Home | Current Version | Previous Version | Text Only | Print | Product List | Glossary On
Versions: 1 2 3 4 5 6 7 8 9 10 11 12 13 14 15 16 17 18 19
808
FTUS43 KMQT 252333
TAFIWD
TAF
KIWD 252333Z 2600/2624 08005KT P6SM SCT080
     FM260400 14003KT P6SM BKN080
     FM261500 18007KT P6SM BKN050=

USA.gov is the U.S. government's official web portal to all federal, state and local government web resources and services.